createdAt,value
2023-04-24T00:00:07.671Z,99384.75
2023-04-24T00:02:35.985Z,99382.66
2023-04-24T00:05:04.768Z,99387.09
2023-04-24T00:07:32.936Z,99389.97
2023-04-24T00:10:01.125Z,99389.38
2023-04-24T00:12:29.625Z,99384.47
2023-04-24T00:14:59.250Z,99383.25
2023-04-24T00:17:27.415Z,99379.50
2023-04-24T00:19:59.506Z,99384.75
2023-04-24T00:22:28.408Z,99393.84
2023-04-24T00:24:56.562Z,99386.38
2023-04-24T00:27:24.908Z,99383.50
2023-04-24T00:29:52.959Z,99375.19
2023-04-24T00:32:22.405Z,99377.81
2023-04-24T00:34:50.838Z,99375.19
2023-04-24T00:37:19.045Z,99385.16
2023-04-24T00:39:47.317Z,99377.13
2023-04-24T00:42:15.404Z,99364.22
2023-04-24T00:44:43.587Z,99367.16
2023-04-24T00:47:13.297Z,99373.28
2023-04-24T00:49:43.150Z,99364.78
2023-04-24T00:52:11.880Z,99365.03
2023-04-24T00:54:39.947Z,99366.72
2023-04-24T00:57:08.336Z,99372.03
2023-04-24T00:59:37.690Z,99366.88
2023-04-24T01:02:06.855Z,99368.03
2023-04-24T01:04:35.337Z,99357.53
2023-04-24T01:07:05.829Z,99375.25
2023-04-24T01:09:33.945Z,99367.72
2023-04-24T01:12:02.713Z,99372.00
2023-04-24T01:14:31.593Z,99365.97
2023-04-24T01:17:01.575Z,99373.19
2023-04-24T01:19:29.823Z,99369.94
2023-04-24T01:22:01.639Z,99364.44
2023-04-24T01:24:31.344Z,99362.75
2023-04-24T01:26:59.595Z,99368.97
2023-04-24T01:29:27.714Z,99368.38
2023-04-24T01:31:58.790Z,99372.75
2023-04-24T01:34:27.519Z,99370.91
2023-04-24T01:36:57.138Z,99373.38
2023-04-24T01:39:26.782Z,99380.59
2023-04-24T01:41:56.572Z,99377.91
2023-04-24T01:44:25.259Z,99377.34
2023-04-24T01:46:55.201Z,99377.50
2023-04-24T01:49:23.563Z,99372.59
2023-04-24T01:51:51.706Z,99368.22
2023-04-24T01:54:20.643Z,99367.94
2023-04-24T01:56:49.301Z,99367.59
2023-04-24T01:59:19.592Z,99369.28
2023-04-24T02:01:47.672Z,99369.50
2023-04-24T02:04:16.586Z,99366.91
2023-04-24T02:06:44.748Z,99369.06
2023-04-24T02:09:13.077Z,99360.03
2023-04-24T02:11:41.249Z,99360.97
2023-04-24T02:14:09.451Z,99367.16
2023-04-24T02:16:39.056Z,99352.06
2023-04-24T02:19:07.220Z,99353.66
2023-04-24T02:21:35.626Z,99354.25
2023-04-24T02:24:05.565Z,99344.81
2023-04-24T02:26:34.139Z,99347.69
2023-04-24T02:29:02.741Z,99352.09
2023-04-24T02:31:30.984Z,99335.09
2023-04-24T02:34:00.592Z,99341.41
2023-04-24T02:36:28.684Z,99340.06
2023-04-24T02:38:56.807Z,99341.06
2023-04-24T02:41:24.873Z,99334.88
2023-04-24T02:43:52.969Z,99336.91
2023-04-24T02:46:21.062Z,99338.25
2023-04-24T02:48:49.216Z,99343.09
2023-04-24T02:51:18.649Z,99336.81
2023-04-24T02:53:46.889Z,99336.69
2023-04-24T02:56:14.969Z,99337.13
2023-04-24T02:58:43.345Z,99337.25
2023-04-24T03:01:11.769Z,99342.78
2023-04-24T03:03:40.699Z,99344.34
2023-04-24T03:06:09.097Z,99339.25
2023-04-24T03:08:38.982Z,99336.47
2023-04-24T03:11:07.097Z,99340.50
2023-04-24T03:13:35.239Z,99334.53
2023-04-24T03:16:03.492Z,99342.53
2023-04-24T03:18:31.604Z,99345.91
2023-04-24T03:21:03.094Z,99346.03
2023-04-24T03:23:34.041Z,99356.84
2023-04-24T03:26:04.031Z,99354.34
2023-04-24T03:28:32.289Z,99351.75
2023-04-24T03:31:01.267Z,99351.09
2023-04-24T03:33:29.662Z,99357.16
2023-04-24T03:35:58.209Z,99355.69
2023-04-24T03:38:26.427Z,99359.41
2023-04-24T03:40:54.586Z,99361.09
2023-04-24T03:43:24.690Z,99364.69
2023-04-24T03:45:53.189Z,99359.63
2023-04-24T03:48:21.389Z,99358.97
2023-04-24T03:50:50.704Z,99359.84
2023-04-24T03:53:18.830Z,99357.34
2023-04-24T03:55:47.030Z,99351.25
2023-04-24T03:58:15.594Z,99336.97
2023-04-24T04:00:45.636Z,99353.06
2023-04-24T04:03:14.518Z,99356.88
2023-04-24T04:05:42.975Z,99352.59
2023-04-24T04:08:11.149Z,99351.91
2023-04-24T04:10:39.348Z,99359.34
2023-04-24T04:13:08.145Z,99361.66
2023-04-24T04:15:36.779Z,99367.47
2023-04-24T04:18:06.728Z,99370.16
2023-04-24T04:20:35.075Z,99376.88
2023-04-24T04:23:03.267Z,99367.97
2023-04-24T04:25:31.282Z,99375.16
2023-04-24T04:28:00.710Z,99375.97
2023-04-24T04:30:30.537Z,99385.16
2023-04-24T04:32:58.588Z,99385.25
2023-04-24T04:35:28.409Z,99393.31
2023-04-24T04:37:57.194Z,99379.50
2023-04-24T04:40:25.440Z,99391.63
2023-04-24T04:42:54.244Z,99388.75
2023-04-24T04:45:22.841Z,99392.41
2023-04-24T04:48:08.991Z,99389.19
2023-04-24T04:50:38.571Z,99383.31
2023-04-24T04:53:06.816Z,99396.78
2023-04-24T04:55:35.020Z,99385.81
2023-04-24T04:58:03.219Z,99382.38
2023-04-24T05:00:36.568Z,99378.69
2023-04-24T05:03:19.381Z,99383.88
2023-04-24T05:05:50.599Z,99382.00
2023-04-24T05:08:26.414Z,99374.41
2023-04-24T05:10:56.515Z,99375.19
2023-04-24T05:13:38.202Z,99375.84
2023-04-24T05:16:07.125Z,99373.63
2023-04-24T05:18:35.419Z,99370.22
2023-04-24T05:21:05.506Z,99371.97
2023-04-24T05:23:33.677Z,99364.31
2023-04-24T05:26:01.998Z,99365.22
2023-04-24T05:28:30.148Z,99345.97
2023-04-24T05:30:58.395Z,99352.00
2023-04-24T05:33:26.589Z,99353.34
2023-04-24T05:35:55.988Z,99345.59
2023-04-24T05:38:25.776Z,99342.38
2023-04-24T05:40:53.913Z,99346.47
2023-04-24T05:43:22.079Z,99348.19
2023-04-24T05:45:50.657Z,99345.72
2023-04-24T05:48:18.865Z,99333.09
2023-04-24T05:50:49.151Z,99344.09
2023-04-24T05:53:17.784Z,99350.13
2023-04-24T05:55:47.821Z,99339.34
2023-04-24T05:58:16.815Z,99346.47
2023-04-24T06:00:47.387Z,99341.31
2023-04-24T06:03:15.714Z,99347.66
2023-04-24T06:05:44.135Z,99354.47
2023-04-24T06:08:12.609Z,99356.00
2023-04-24T06:10:41.373Z,99347.28
2023-04-24T06:13:10.909Z,99350.66
2023-04-24T06:15:39.459Z,99345.44
2023-04-24T06:18:07.539Z,99347.91
2023-04-24T06:20:35.580Z,99349.16
2023-04-24T06:23:03.845Z,99356.53
2023-04-24T06:25:32.180Z,99357.38
2023-04-24T06:28:00.474Z,99352.53
2023-04-24T06:30:30.142Z,99344.91
2023-04-24T06:33:03.074Z,99350.16
2023-04-24T06:35:39.233Z,99353.53
2023-04-24T06:38:07.797Z,99353.41
2023-04-24T06:40:36.142Z,99352.19
2023-04-24T06:43:04.260Z,99348.56
2023-04-24T06:45:33.761Z,99351.56
2023-04-24T06:48:02.067Z,99353.22
2023-04-24T06:50:30.254Z,99356.06
2023-04-24T06:52:58.525Z,99345.19
2023-04-24T06:55:26.631Z,99352.56
2023-04-24T06:57:55.165Z,99361.38
2023-04-24T07:00:25.409Z,99358.13
2023-04-24T07:02:55.229Z,99360.13
2023-04-24T07:05:24.490Z,99358.81
2023-04-24T07:07:53.574Z,99360.06
2023-04-24T07:10:22.342Z,99363.69
2023-04-24T07:12:50.710Z,99365.03
2023-04-24T07:15:19.091Z,99367.56
2023-04-24T07:17:47.269Z,99364.19
2023-04-24T07:20:24.465Z,99363.25
2023-04-24T07:22:55.030Z,99361.66
2023-04-24T07:25:23.376Z,99359.22
2023-04-24T07:27:51.639Z,99363.97
2023-04-24T07:30:19.859Z,99362.75
2023-04-24T07:32:48.050Z,99368.31
2023-04-24T07:35:17.755Z,99358.63
2023-04-24T07:37:47.050Z,99368.53
2023-04-24T07:40:15.352Z,99366.25
2023-04-24T07:42:44.980Z,99355.78
2023-04-24T07:45:13.238Z,99363.22
2023-04-24T07:47:41.594Z,99357.81
2023-04-24T07:50:10.641Z,99356.25
2023-04-24T07:52:40.363Z,99356.22
2023-04-24T07:55:09.557Z,99354.63
2023-04-24T07:57:38.357Z,99354.63
2023-04-24T08:00:07.980Z,99351.94
2023-04-24T08:02:36.450Z,99348.44
2023-04-24T08:05:05.397Z,99342.63
2023-04-24T08:07:33.854Z,99341.41
2023-04-24T08:10:03.524Z,99340.66
2023-04-24T08:12:32.137Z,99339.03
2023-04-24T08:15:00.554Z,99329.19
2023-04-24T08:17:28.623Z,99325.00
2023-04-24T08:20:02.697Z,99317.19
2023-04-24T08:22:31.637Z,99329.31
2023-04-24T08:25:02.021Z,99330.09
2023-04-24T08:27:31.514Z,99328.16
2023-04-24T08:30:00.116Z,99319.16
2023-04-24T08:32:30.241Z,99306.28
2023-04-24T08:35:00.286Z,99311.25
2023-04-24T08:37:29.435Z,99312.47
2023-04-24T08:39:57.565Z,99298.47
2023-04-24T08:42:26.181Z,99300.00
2023-04-24T08:44:57.839Z,99296.13
2023-04-24T08:47:28.482Z,99290.19
2023-04-24T08:49:56.818Z,99296.03
2023-04-24T08:52:25.486Z,99294.13
2023-04-24T08:54:55.730Z,99293.38
2023-04-24T08:57:24.562Z,99294.56
2023-04-24T08:59:53.469Z,99289.44
2023-04-24T09:02:23.667Z,99286.31
2023-04-24T09:04:54.769Z,99279.66
2023-04-24T09:07:27.128Z,99281.22
2023-04-24T09:09:56.794Z,99278.13
2023-04-24T09:12:24.957Z,99279.69
2023-04-24T09:14:55.128Z,99271.88
2023-04-24T09:17:28.094Z,99283.91
2023-04-24T09:19:56.437Z,99276.41
2023-04-24T09:22:24.766Z,99266.19
2023-04-24T09:25:04.126Z,99264.25
2023-04-24T09:27:33.200Z,99267.03
2023-04-24T09:30:02.099Z,99264.59
2023-04-24T09:32:32.977Z,99260.97
2023-04-24T09:35:13.444Z,99255.19
2023-04-24T09:37:43.675Z,99257.50
2023-04-24T09:40:14.453Z,99254.06
2023-04-24T09:42:45.458Z,99254.16
2023-04-24T09:45:15.402Z,99248.13
2023-04-24T09:47:47.307Z,99253.53
2023-04-24T09:50:17.868Z,99237.88
2023-04-24T09:52:57.873Z,99232.19
2023-04-24T09:55:26.593Z,99230.69
2023-04-24T09:57:55.957Z,99226.19
2023-04-24T10:00:25.987Z,99232.88
2023-04-24T10:02:59.201Z,99227.81
2023-04-24T10:05:30.548Z,99221.75
2023-04-24T10:07:59.671Z,99230.56
2023-04-24T10:10:28.818Z,99227.38
2023-04-24T10:12:57.609Z,99228.16
2023-04-24T10:15:26.561Z,99222.16
2023-04-24T10:17:57.456Z,99215.63
2023-04-24T10:20:30.229Z,99215.13
2023-04-24T10:22:59.369Z,99199.63
2023-04-24T10:25:29.276Z,99199.84
2023-04-24T10:28:00.666Z,99203.88
2023-04-24T10:30:30.205Z,99194.59
2023-04-24T10:32:58.778Z,99199.97
2023-04-24T10:35:28.545Z,99195.19
2023-04-24T10:38:01.051Z,99186.06
2023-04-24T10:40:32.499Z,99171.84
2023-04-24T10:43:00.917Z,99185.94
2023-04-24T10:45:29.131Z,99172.41
2023-04-24T10:48:04.308Z,99162.91
2023-04-24T10:50:47.510Z,99163.44
2023-04-24T10:53:18.557Z,99158.53
2023-04-24T10:55:49.269Z,99162.50
2023-04-24T10:58:18.786Z,99158.19
2023-04-24T11:00:58.704Z,99149.16
2023-04-24T11:03:30.285Z,99153.00
2023-04-24T11:06:02.364Z,99144.59
2023-04-24T11:08:39.394Z,99159.44
2023-04-24T11:11:12.385Z,99150.00
2023-04-24T11:14:09.349Z,99149.00
2023-04-24T11:16:41.978Z,99148.03
2023-04-24T11:19:12.245Z,99136.38
2023-04-24T11:21:46.120Z,99141.34
2023-04-24T11:24:39.474Z,99131.88
2023-04-24T11:27:10.181Z,99125.75
2023-04-24T11:29:44.082Z,99128.75
2023-04-24T11:32:26.823Z,99125.75
2023-04-24T11:34:57.497Z,99117.66
2023-04-24T11:37:29.621Z,99119.59
2023-04-24T11:40:01.179Z,99124.75
2023-04-24T11:42:31.318Z,99113.44
2023-04-24T11:45:01.388Z,99120.19
2023-04-24T11:47:35.088Z,99110.81
2023-04-24T11:50:04.844Z,99107.22
2023-04-24T11:52:35.913Z,99089.69
2023-04-24T11:55:04.872Z,99089.22
2023-04-24T11:57:35.493Z,99074.00
2023-04-24T12:00:06.257Z,99060.00
2023-04-24T12:02:36.926Z,99062.25
2023-04-24T12:05:07.275Z,99063.88
2023-04-24T12:07:44.294Z,99055.28
2023-04-24T12:10:12.665Z,99057.84
2023-04-24T12:12:41.039Z,99049.41
2023-04-24T12:15:10.623Z,99026.44
2023-04-24T12:17:43.318Z,99005.53
2023-04-24T12:20:12.808Z,99021.44
2023-04-24T12:22:49.717Z,99007.50
2023-04-24T12:25:19.823Z,99004.22
2023-04-24T12:27:48.777Z,98997.81
2023-04-24T12:30:18.787Z,99003.41
2023-04-24T12:32:49.147Z,98990.59
2023-04-24T12:35:23.146Z,98982.69
2023-04-24T12:37:52.817Z,98984.66
2023-04-24T12:40:23.021Z,98981.41
2023-04-24T12:42:52.638Z,98977.09
2023-04-24T12:45:24.459Z,98977.13
2023-04-24T12:47:52.678Z,98969.97
2023-04-24T12:50:21.561Z,98958.03
2023-04-24T12:52:50.548Z,98954.47
2023-04-24T12:55:20.144Z,98948.13
2023-04-24T12:57:48.541Z,98957.63
2023-04-24T13:00:19.988Z,98953.56
2023-04-24T13:02:48.614Z,98936.81
2023-04-24T13:05:16.850Z,98937.03
2023-04-24T13:07:45.128Z,98942.09
2023-04-24T13:10:14.371Z,98943.59
2023-04-24T13:12:46.477Z,98925.50
2023-04-24T13:15:15.079Z,98921.88
2023-04-24T13:17:43.392Z,98922.88
2023-04-24T13:20:12.086Z,98920.38
2023-04-24T13:22:40.328Z,98930.75
2023-04-24T13:25:10.008Z,98925.41
2023-04-24T13:27:40.626Z,98930.28
2023-04-24T13:30:13.940Z,98921.50
2023-04-24T13:32:42.361Z,98931.69
2023-04-24T13:35:11.194Z,98924.22
2023-04-24T13:37:39.889Z,98926.72
2023-04-24T13:40:09.531Z,98922.34
2023-04-24T13:42:37.831Z,98923.63
2023-04-24T13:45:17.783Z,98916.22
2023-04-24T13:47:59.055Z,98916.00
2023-04-24T13:50:30.504Z,98914.22
2023-04-24T13:53:02.619Z,98914.38
2023-04-24T13:55:33.566Z,98897.94
2023-04-24T13:58:02.464Z,98899.88
2023-04-24T14:00:31.099Z,98892.41
2023-04-24T14:03:00.941Z,98885.03
2023-04-24T14:05:29.388Z,98892.53
2023-04-24T14:07:57.734Z,98883.38
2023-04-24T14:10:26.652Z,98882.84
2023-04-24T14:12:54.912Z,98885.28
2023-04-24T14:15:23.330Z,98881.75
2023-04-24T14:17:52.193Z,98872.16
2023-04-24T14:20:22.842Z,98869.28
2023-04-24T14:22:51.412Z,98870.94
2023-04-24T14:25:20.617Z,98862.88
2023-04-24T14:27:49.417Z,98868.50
2023-04-24T14:30:17.805Z,98851.13
2023-04-24T14:32:48.312Z,98855.91
2023-04-24T14:35:17.128Z,98852.06
2023-04-24T14:37:49.454Z,98847.09
2023-04-24T14:40:39.673Z,98844.81
2023-04-24T14:43:06.399Z,98842.91
2023-04-24T14:45:37.671Z,98849.50
2023-04-24T14:48:06.531Z,98856.56
2023-04-24T14:50:35.216Z,98863.00
2023-04-24T14:53:05.248Z,98857.81
2023-04-24T14:55:35.230Z,98855.41
2023-04-24T14:58:03.457Z,98845.56
2023-04-24T15:00:31.842Z,98848.56
2023-04-24T15:03:01.236Z,98835.44
2023-04-24T15:05:33.479Z,98839.47
2023-04-24T15:08:09.521Z,98830.03
2023-04-24T15:10:38.225Z,98831.03
2023-04-24T15:13:06.965Z,98836.69
2023-04-24T15:15:35.211Z,98837.19
2023-04-24T15:18:03.885Z,98841.56
2023-04-24T15:20:33.208Z,98826.91
2023-04-24T15:23:04.031Z,98836.28
2023-04-24T15:25:34.971Z,98821.72
2023-04-24T15:28:05.997Z,98820.97
2023-04-24T15:30:34.857Z,98811.91
2023-04-24T15:33:06.829Z,98812.25
2023-04-24T15:35:37.075Z,98814.97
2023-04-24T15:38:05.751Z,98809.56
2023-04-24T15:40:36.396Z,98807.25
2023-04-24T15:43:04.667Z,98808.13
2023-04-24T15:45:33.376Z,98807.09
2023-04-24T15:48:03.134Z,98799.34
2023-04-24T15:50:32.951Z,98800.06
2023-04-24T15:53:01.598Z,98799.69
2023-04-24T15:55:30.621Z,98798.53
2023-04-24T15:58:00.322Z,98799.94
2023-04-24T16:00:34.394Z,98797.13
2023-04-24T16:03:03.230Z,98802.16
2023-04-24T16:05:31.652Z,98794.91
2023-04-24T16:08:00.260Z,98791.78
2023-04-24T16:10:29.785Z,98786.22
2023-04-24T16:13:01.196Z,98780.97
2023-04-24T16:15:29.402Z,98788.13
2023-04-24T16:17:58.587Z,98786.03
2023-04-24T16:20:28.284Z,98779.16
2023-04-24T16:22:56.542Z,98774.00
2023-04-24T16:25:24.644Z,98775.41
2023-04-24T16:27:52.891Z,98768.50
2023-04-24T16:30:22.518Z,98756.84
2023-04-24T16:32:51.041Z,98761.28
2023-04-24T16:35:19.356Z,98759.91
2023-04-24T16:37:47.631Z,98756.66
2023-04-24T16:40:15.972Z,98758.16
2023-04-24T16:42:44.085Z,98751.66
2023-04-24T16:45:12.855Z,98759.22
2023-04-24T16:47:42.785Z,98759.66
2023-04-24T16:50:13.043Z,98767.31
2023-04-24T16:52:41.258Z,98766.69
2023-04-24T16:55:10.728Z,98762.25
2023-04-24T16:57:38.889Z,98763.19
2023-04-24T17:00:08.892Z,98759.06
2023-04-24T17:02:37.538Z,98758.72
2023-04-24T17:05:08.681Z,98755.03
2023-04-24T17:07:37.081Z,98764.22
2023-04-24T17:10:05.702Z,98774.88
2023-04-24T17:12:34.607Z,98769.53
2023-04-24T17:15:02.887Z,98771.94
2023-04-24T17:17:31.025Z,98779.47
2023-04-24T17:20:01.510Z,98769.09
2023-04-24T17:22:33.070Z,98777.47
2023-04-24T17:25:01.340Z,98765.94
2023-04-24T17:27:30.849Z,98762.22
2023-04-24T17:30:00.358Z,98769.13
2023-04-24T17:32:28.818Z,98763.50
2023-04-24T17:34:57.044Z,98765.81
2023-04-24T17:37:25.475Z,98762.47
2023-04-24T17:39:55.287Z,98766.47
2023-04-24T17:42:23.409Z,98769.28
2023-04-24T17:44:53.152Z,98775.56
2023-04-24T17:47:22.887Z,98765.53
2023-04-24T17:49:52.304Z,98767.97
2023-04-24T17:52:20.453Z,98773.25
2023-04-24T17:54:49.814Z,98774.09
2023-04-24T17:57:19.761Z,98789.41
2023-04-24T17:59:47.865Z,98780.50
2023-04-24T18:02:16.577Z,98780.50
2023-04-24T18:04:45.050Z,98783.00
2023-04-24T18:07:13.302Z,98770.19
2023-04-24T18:09:41.555Z,98774.91
2023-04-24T18:12:27.028Z,98776.13
2023-04-24T18:15:06.677Z,98779.38
2023-04-24T18:17:41.869Z,98784.19
2023-04-24T18:20:11.452Z,98799.13
2023-04-24T18:22:41.004Z,98798.44
2023-04-24T18:25:10.291Z,98810.28
2023-04-24T18:27:39.066Z,98815.84
2023-04-24T18:30:14.938Z,98822.16
2023-04-24T18:32:43.952Z,98825.53
2023-04-24T18:35:12.949Z,98832.22
2023-04-24T18:37:41.846Z,98823.44
2023-04-24T18:40:12.226Z,98828.59
2023-04-24T18:42:41.061Z,98835.25
2023-04-24T18:45:14.663Z,98848.94
2023-04-24T18:47:44.003Z,98843.50
2023-04-24T18:50:14.849Z,98844.84
2023-04-24T18:52:43.575Z,98834.00
2023-04-24T18:55:12.489Z,98832.56
2023-04-24T18:57:40.756Z,98825.94
2023-04-24T19:00:11.591Z,98829.13
2023-04-24T19:02:40.758Z,98819.28
2023-04-24T19:05:11.191Z,98824.44
2023-04-24T19:07:41.093Z,98821.41
2023-04-24T19:10:10.927Z,98830.03
2023-04-24T19:12:39.745Z,98832.38
2023-04-24T19:15:11.957Z,98830.91
2023-04-24T19:17:42.773Z,98836.47
2023-04-24T19:20:12.549Z,98835.78
2023-04-24T19:22:41.250Z,98843.56
2023-04-24T19:25:11.075Z,98840.50
2023-04-24T19:27:39.744Z,98836.81
2023-04-24T19:30:09.607Z,98835.22
2023-04-24T19:32:38.288Z,98837.75
2023-04-24T19:35:11.746Z,98847.88
2023-04-24T19:37:42.105Z,98842.78
2023-04-24T19:40:10.954Z,98838.94
2023-04-24T19:42:43.819Z,98857.03
2023-04-24T19:45:13.580Z,98854.28
2023-04-24T19:47:42.536Z,98851.25
2023-04-24T19:50:12.509Z,98851.66
2023-04-24T19:52:40.910Z,98852.94
2023-04-24T19:55:09.862Z,98851.38
2023-04-24T19:57:38.226Z,98857.16
2023-04-24T20:00:08.424Z,98845.94
2023-04-24T20:02:37.125Z,98850.25
2023-04-24T20:05:06.519Z,98855.31
2023-04-24T20:07:36.465Z,98848.31
2023-04-24T20:10:04.866Z,98848.38
2023-04-24T20:12:33.088Z,98859.72
2023-04-24T20:15:02.224Z,98864.03
2023-04-24T20:17:30.628Z,98870.69
2023-04-24T20:19:58.795Z,98867.56
2023-04-24T20:22:26.951Z,98869.84
2023-04-24T20:24:56.803Z,98873.41
2023-04-24T20:27:25.054Z,98884.72
2023-04-24T20:29:54.922Z,98885.44
2023-04-24T20:32:24.674Z,98890.88
2023-04-24T20:34:52.960Z,98899.09
2023-04-24T20:37:21.300Z,98906.50
2023-04-24T20:39:51.026Z,98903.78
2023-04-24T20:42:20.831Z,98919.38
2023-04-24T20:44:49.390Z,98926.75
2023-04-24T20:47:17.519Z,98930.25
2023-04-24T20:49:45.659Z,98947.00
2023-04-24T20:52:13.913Z,98943.88
2023-04-24T20:54:42.071Z,98952.06
2023-04-24T20:57:10.491Z,98957.16
2023-04-24T20:59:40.213Z,98951.31
2023-04-24T21:02:08.954Z,98959.03
2023-04-24T21:04:39.853Z,98962.16
2023-04-24T21:07:09.396Z,98968.38
2023-04-24T21:09:37.864Z,98981.28
2023-04-24T21:12:06.409Z,98991.44
2023-04-24T21:14:34.526Z,99000.03
2023-04-24T21:17:04.299Z,98996.91
2023-04-24T21:19:32.574Z,98991.06
2023-04-24T21:22:00.794Z,99001.22
2023-04-24T21:24:29.274Z,99009.00
2023-04-24T21:26:57.490Z,99011.31
2023-04-24T21:29:25.628Z,99010.97
2023-04-24T21:31:54.309Z,99012.16
2023-04-24T21:34:23.881Z,99012.91
2023-04-24T21:36:52.070Z,99018.00
2023-04-24T21:39:20.172Z,99023.09
2023-04-24T21:41:48.680Z,99030.09
2023-04-24T21:44:16.870Z,99026.19
2023-04-24T21:46:45.273Z,99016.06
2023-04-24T21:49:13.473Z,99023.88
2023-04-24T21:51:43.074Z,99021.53
2023-04-24T21:54:11.147Z,99017.22
2023-04-24T21:56:41.532Z,99003.19
2023-04-24T21:59:10.091Z,98989.94
2023-04-24T22:01:38.611Z,98979.44
2023-04-24T22:04:07.366Z,98979.44
2023-04-24T22:06:35.587Z,98991.09
2023-04-24T22:09:06.006Z,98985.22
2023-04-24T22:11:34.175Z,98985.63
2023-04-24T22:14:02.205Z,98980.13
2023-04-24T22:16:31.254Z,98981.59
2023-04-24T22:18:59.884Z,98966.31
2023-04-24T22:21:29.123Z,98961.53
2023-04-24T22:23:57.849Z,98961.47
2023-04-24T22:26:27.339Z,98943.97
2023-04-24T22:28:55.509Z,98947.78
2023-04-24T22:31:23.770Z,98946.97
2023-04-24T22:33:52.655Z,98944.94
2023-04-24T22:36:21.534Z,98941.00
2023-04-24T22:38:49.708Z,98932.53
2023-04-24T22:41:18.049Z,98923.53
2023-04-24T22:43:47.965Z,98920.03
2023-04-24T22:46:16.327Z,98919.59
2023-04-24T22:48:44.514Z,98912.19
2023-04-24T22:51:12.724Z,98909.84
2023-04-24T22:53:40.984Z,98905.94
2023-04-24T22:56:09.233Z,98899.28
2023-04-24T22:58:37.438Z,98900.81
2023-04-24T23:01:07.151Z,98895.72
2023-04-24T23:03:35.857Z,98891.03
2023-04-24T23:06:04.432Z,98884.75
2023-04-24T23:08:32.586Z,98878.13
2023-04-24T23:11:02.006Z,98874.97
2023-04-24T23:13:30.181Z,98878.13
2023-04-24T23:15:58.504Z,98884.00
2023-04-24T23:18:28.345Z,98866.53
2023-04-24T23:20:56.510Z,98865.34
2023-04-24T23:23:24.759Z,98854.47
2023-04-24T23:25:52.755Z,98860.59
2023-04-24T23:28:21.065Z,98855.50
2023-04-24T23:30:49.227Z,98845.75
2023-04-24T23:33:17.308Z,98844.22
2023-04-24T23:35:46.947Z,98837.63
2023-04-24T23:38:15.215Z,98818.25
2023-04-24T23:40:43.566Z,98820.94
2023-04-24T23:43:12.678Z,98814.34
2023-04-24T23:45:40.852Z,98809.66
2023-04-24T23:48:09.008Z,98797.97
2023-04-24T23:50:37.216Z,98799.16
2023-04-24T23:53:06.800Z,98783.28
2023-04-24T23:55:34.952Z,98791.06
2023-04-24T23:58:03.179Z,98782.44
